This is the latest recevied weather packets stored in our database for station/object VK5GR-12. If no packets are shown the sender has not sent any weather packets the latest 1 day(s).
| Time | Temp. | Humidity | Pressure | Rain* | Wind** | Luminosity | Snow |
|---|---|---|---|---|---|---|---|
| 1836274464 | 13.89° C | 65% | 1018 hPa | 0 mm | 2.24 m/s, 278° | 163 W/m² | - |
| 1836274314 | 13.33° C | 66% | 1018.2 hPa | 0 mm | 2.24 m/s, 343° | 279 W/m² | - |
| 1778063951 | 13.33° C | 81% | 1024.9 hPa | 0 mm | 0 m/s | 0 W/m² | - |
| 1778063049 | 13.89° C | 81% | 1024.8 hPa | 0 mm | 0 m/s | 0 W/m² | - |
| 1778062145 | 13.89° C | 81% | 1024.5 hPa | 0 mm | 1.34 m/s, 289° | 0 W/m² | - |
| 1778061246 | 13.89° C | 83% | 1024.3 hPa | 0 mm | 0.45 m/s, 271° | 0 W/m² | - |
| 1778060343 | 14.44° C | 83% | 1024.1 hPa | 0 mm | 0 m/s | 0 W/m² | - |
| 1778059442 | 14.44° C | 83% | 1023.8 hPa | 0 mm | 0 m/s | 0 W/m² | - |
| 1778058539 | 15° C | 84% | 1023.5 hPa | 0 mm | 0.45 m/s, 257° | 0 W/m² | - |
| 1778057636 | 15° C | 82% | 1023.4 hPa | 0 mm | 0 m/s | 0 W/m² | - |
| 1778056731 | 15° C | 81% | 1022.9 hPa | 0 mm | 0 m/s | 0 W/m² | - |
| 1778055829 | 15.56° C | 79% | 1022.9 hPa | 0 mm | 0 m/s | 0 W/m² | - |
| 1778054926 | 15.56° C | 76% | 1022.5 hPa | 0 mm | 0 m/s | 1 W/m² | - |
| 1778054024 | 15.56° C | 74% | 1022.4 hPa | 0 mm | 0.45 m/s, 279° | 4 W/m² | - |
| 1778053121 | 16.11° C | 72% | 1022.3 hPa | 0 mm | 0.89 m/s, 284° | 13 W/m² | - |
| 1778052219 | 17.78° C | 68% | 1022.3 hPa | 0 mm | 0 m/s | 23 W/m² | - |
| 1778051317 | 18.33° C | 64% | 1022.2 hPa | 0 mm | 0.45 m/s, 264° | 47 W/m² | - |
| 1778050415 | 18.33° C | 68% | 1021.9 hPa | 0 mm | 0.45 m/s, 292° | 82 W/m² | - |
| 1778049516 | 18.33° C | 69% | 1022 hPa | 0 mm | 0.89 m/s, 307° | 66 W/m² | - |
| 1778048614 | 19.44° C | 67% | 1022 hPa | 0 mm | 1.34 m/s, 294° | 216 W/m² | - |
| 1778047711 | 17.22° C | 74% | 1021.9 hPa | 0 mm | 0.45 m/s, 278° | 51 W/m² | - |
| 1778046808 | 17.22° C | 75% | 1022 hPa | 0 mm | 0.45 m/s, 281° | 106 W/m² | - |
| 1778045904 | 17.78° C | 73% | 1022 hPa | 0 mm | 0.89 m/s, 303° | 201 W/m² | - |
| 1778044999 | 16.67° C | 80% | 1021.6 hPa | 0 mm | 0 m/s | 84 W/m² | - |
| 1778044096 | 16.67° C | 83% | 1021.8 hPa | 0 mm | 0 m/s | 62 W/m² | - |
* Rain latest hour (hover to see other rain measurements)
** Current wind speed in m/s (hover to see current wind gust speed)